15:04
Airports
History
Links
Donate
Help keep this website running!
PayPal
Bitcoin
This page is community maintained. The information is intended for PC simulator navigation or reference.
Always use approved charts for navigation.
VTX6
Chonburi
Chonburi (VTX6)
Mueang Chon Buri, Chon Buri, Thailand (20000)
(C)
Lat/Lng:13° 23' 35.41" N / 101° 0' 22.38" E
13.393169 / 101.006218
Elevation:10'ft / 3mMSL
ID / ICAO:VTX6
Runways:1
Longest:15-33
Asphalt 515m / 1,690ft
Controlled:Yes
Nearby Weather14:30 GMT 2017-11-23
Nearby weather at VTBS, Bangkok Suvarnabhumi Intl located 26.3 nautical miles from VTX6
Altimeter: 29.88
Visibility: 6.2 statute miles
Wind: 6 knots (from 060°)
Temp: 30°c / 86°f
Humidity: 58.6%

METAR: VTBS 231430Z 06006KT 9999 FEW020 30/21 Q1012 NOSIG

(Powered by phpweather)
Nearby VORs <50NM
Nearby NDBs
Runway 15 / 33
Dimensions:515 x 18m 1690' x 59'ft
Surface:Asphalt
Edge Lights:Medium intensity
Runway 15 [A]Runway 33 [B]
Heading:154°TH 334°TH
Lat:
Lng:
13° 23' 43.02"N
101° 0' 18.74"E
13° 23' 27.8"N
101° 0' 26.03"E
User Notes and Comments
13° 23' 35.41" N / 101° 0' 22.38" E
Distance To
Airport ID:
Nearby Airports
(C) Ban Bung 10.3 NM
VTX2 SE 128°
(C) Chonburi Ultralights 10.9 NM
VTX7 S 184°
(C) Bang Phra 11.6 NM
VTBT SSW 196°
(C) Bangkok Suvarnabhumi Intl 26.3 NM
VTBS ( WX ) NW 318°
(C) Pattaya Eastern Flying Club 34.2 NM
VTW5 S 188°
(C) Dok Rai 34.7 NM
VTX9 SSE 159°
(C) Minburi 35.0 NM
VTY9 NNW 328°
VFR Chart
Flight Planning at SkyVector.com